createdAt,value
2019-03-24T00:02:14.540Z,34.57
2019-03-24T00:04:44.127Z,32.67
2019-03-24T00:07:18.883Z,31.30
2019-03-24T00:09:50.695Z,25.87
2019-03-24T00:12:20.651Z,32.03
2019-03-24T00:14:57.631Z,29.17
2019-03-24T00:17:29.917Z,32.00
2019-03-24T00:20:00.932Z,33.50
2019-03-24T00:22:36.025Z,31.87
2019-03-24T00:25:09.709Z,30.40
2019-03-24T00:27:42.474Z,31.33
2019-03-24T00:30:16.452Z,30.60
2019-03-24T00:32:47.827Z,30.13
2019-03-24T00:35:22.416Z,30.10
2019-03-24T00:37:58.830Z,28.17
2019-03-24T00:40:28.468Z,30.40
2019-03-24T00:42:58.293Z,30.80
2019-03-24T00:45:36.703Z,31.13
2019-03-24T00:48:02.133Z,30.77
2019-03-24T00:50:31.737Z,32.83
2019-03-24T00:53:04.974Z,28.50
2019-03-24T00:55:36.365Z,29.57
2019-03-24T00:58:15.341Z,28.60
2019-03-24T01:00:46.609Z,29.97
2019-03-24T01:03:18.174Z,32.20
2019-03-24T01:06:01.772Z,28.93
2019-03-24T01:08:33.689Z,29.93
2019-03-24T01:11:03.309Z,29.37
2019-03-24T01:13:36.093Z,29.90
2019-03-24T01:16:10.825Z,30.37
2019-03-24T01:18:40.481Z,32.13
2019-03-24T01:21:10.088Z,30.60
2019-03-24T01:23:41.157Z,32.30
2019-03-24T01:26:14.278Z,33.67
2019-03-24T01:28:46.338Z,29.37
2019-03-24T01:31:17.324Z,28.93
2019-03-24T01:33:50.622Z,30.17
2019-03-24T01:36:20.622Z,29.20
2019-03-24T01:38:51.402Z,30.90
2019-03-24T01:41:20.987Z,31.53
2019-03-24T01:43:50.607Z,31.10
2019-03-24T01:46:22.082Z,29.67
2019-03-24T01:48:51.758Z,31.67
2019-03-24T01:51:24.711Z,28.80
2019-03-24T01:53:54.327Z,29.13
2019-03-24T01:56:24.022Z,29.00
2019-03-24T01:58:55.020Z,32.47
2019-03-24T02:01:27.986Z,27.50
2019-03-24T02:03:57.566Z,29.43
2019-03-24T02:06:27.203Z,28.70
2019-03-24T02:08:59.611Z,32.17
2019-03-24T02:11:30.316Z,30.87
2019-03-24T02:14:05.751Z,30.67
2019-03-24T02:16:35.497Z,29.60
2019-03-24T02:19:05.246Z,27.37
2019-03-24T02:21:37.902Z,31.20
2019-03-24T02:24:07.874Z,27.27
2019-03-24T02:26:43.730Z,29.67
2019-03-24T02:29:17.704Z,30.90
2019-03-24T02:31:47.321Z,29.10
2019-03-24T02:34:17.009Z,31.00
2019-03-24T02:36:47.046Z,30.50
2019-03-24T02:39:21.090Z,30.97
2019-03-24T02:42:06.746Z,29.90
2019-03-24T02:44:37.653Z,30.37
2019-03-24T02:47:10.225Z,32.27
2019-03-24T02:49:43.024Z,30.13
2019-03-24T02:52:12.631Z,32.00
2019-03-24T02:54:42.581Z,30.80
2019-03-24T02:57:12.205Z,31.20
2019-03-24T02:59:42.883Z,26.67
2019-03-24T03:02:15.279Z,30.60
2019-03-24T03:04:47.730Z,29.10
2019-03-24T03:07:18.716Z,30.33
2019-03-24T03:09:48.659Z,29.97
2019-03-24T03:12:18.254Z,27.30
2019-03-24T03:14:47.928Z,29.43
2019-03-24T03:17:20.004Z,29.87
2019-03-24T03:19:53.806Z,28.27
2019-03-24T03:22:26.777Z,30.27
2019-03-24T03:24:56.364Z,27.27
2019-03-24T03:27:35.022Z,27.03
2019-03-24T03:30:06.192Z,28.33
2019-03-24T03:32:37.855Z,29.33
2019-03-24T03:35:10.389Z,28.33
2019-03-24T03:37:41.926Z,26.63
2019-03-24T03:40:11.968Z,30.60
2019-03-24T03:42:41.612Z,27.40
2019-03-24T03:45:13.433Z,25.93
2019-03-24T03:47:43.088Z,29.13
2019-03-24T03:50:16.501Z,27.67
2019-03-24T03:52:49.259Z,28.30
2019-03-24T03:55:18.971Z,27.20
2019-03-24T03:57:50.850Z,25.90
2019-03-24T04:00:28.698Z,27.70
2019-03-24T04:02:58.307Z,30.37
2019-03-24T04:05:28.025Z,26.87
2019-03-24T04:07:58.535Z,25.63
2019-03-24T04:10:31.751Z,26.73
2019-03-24T04:13:01.359Z,27.13
2019-03-24T04:15:31.363Z,29.07
2019-03-24T04:18:03.485Z,28.17
2019-03-24T04:20:33.238Z,27.57
2019-03-24T04:23:02.940Z,28.87
2019-03-24T04:25:35.616Z,30.00
2019-03-24T04:28:07.628Z,26.23
2019-03-24T04:30:37.223Z,27.57
2019-03-24T04:33:06.811Z,29.60
2019-03-24T04:35:39.632Z,31.67
2019-03-24T04:38:13.471Z,30.30
2019-03-24T04:40:46.377Z,28.40
2019-03-24T04:43:20.490Z,25.93
2019-03-24T04:45:53.223Z,30.60
2019-03-24T04:48:28.577Z,31.37
2019-03-24T04:50:59.725Z,30.93
2019-03-24T04:53:34.784Z,28.90
2019-03-24T04:56:04.642Z,27.40
2019-03-24T04:58:37.462Z,27.87
2019-03-24T05:01:12.345Z,29.37
2019-03-24T05:03:41.961Z,32.90
2019-03-24T05:06:11.898Z,28.20
2019-03-24T05:08:44.802Z,29.53
2019-03-24T05:11:21.818Z,29.33
2019-03-24T05:13:52.939Z,27.97
2019-03-24T05:16:22.943Z,30.50
2019-03-24T05:18:52.733Z,32.07
2019-03-24T05:21:26.477Z,31.23
2019-03-24T05:23:56.086Z,29.37
2019-03-24T05:26:25.683Z,31.70
2019-03-24T05:29:01.087Z,29.10
2019-03-24T05:31:31.781Z,28.67
2019-03-24T05:34:01.364Z,27.90
2019-03-24T05:36:32.824Z,29.77
2019-03-24T05:39:07.196Z,28.97
2019-03-24T05:41:39.544Z,30.30
2019-03-24T05:44:10.950Z,31.57
2019-03-24T05:46:43.151Z,28.03
2019-03-24T05:49:12.737Z,26.50
2019-03-24T05:51:42.709Z,25.70
2019-03-24T05:54:12.289Z,28.40
2019-03-24T05:56:41.958Z,30.47
2019-03-24T05:59:12.657Z,29.37
2019-03-24T06:01:43.309Z,29.80
2019-03-24T06:04:21.982Z,27.50
2019-03-24T06:06:51.588Z,26.40
2019-03-24T06:09:21.274Z,29.53
2019-03-24T06:11:53.016Z,28.67
2019-03-24T06:14:22.650Z,28.97
2019-03-24T06:16:52.362Z,27.30
2019-03-24T06:19:21.946Z,29.50
2019-03-24T06:21:52.645Z,28.73
2019-03-24T06:24:27.748Z,27.67
2019-03-24T06:27:00.673Z,29.30
2019-03-24T06:29:30.735Z,31.07
2019-03-24T06:32:02.852Z,31.07
2019-03-24T06:34:35.865Z,29.13
2019-03-24T06:37:07.317Z,29.63
2019-03-24T06:39:36.982Z,30.97
2019-03-24T06:42:06.976Z,30.10
2019-03-24T06:44:38.643Z,29.40
2019-03-24T06:47:11.249Z,29.40
2019-03-24T06:49:40.990Z,28.30
2019-03-24T06:52:14.741Z,29.53
2019-03-24T06:54:44.687Z,32.63
2019-03-24T06:57:22.328Z,30.40
2019-03-24T06:59:54.529Z,29.80
2019-03-24T07:02:26.775Z,33.03
2019-03-24T07:04:57.534Z,32.00
2019-03-24T07:07:27.169Z,31.90
2019-03-24T07:09:57.166Z,31.03
2019-03-24T07:12:32.961Z,31.37
2019-03-24T07:15:03.749Z,31.70
2019-03-24T07:17:33.431Z,31.83
2019-03-24T07:20:03.016Z,30.40
2019-03-24T07:22:34.391Z,31.70
2019-03-24T07:25:05.617Z,33.80
2019-03-24T07:27:38.214Z,31.40
2019-03-24T07:30:10.423Z,32.37
2019-03-24T07:32:42.371Z,31.47
2019-03-24T07:35:12.426Z,31.33
2019-03-24T07:37:44.997Z,34.20
2019-03-24T07:40:16.341Z,36.23
2019-03-24T07:42:53.129Z,32.70
2019-03-24T07:45:24.572Z,32.70
2019-03-24T07:47:56.195Z,32.60
2019-03-24T07:50:26.112Z,35.23
2019-03-24T07:52:55.859Z,32.73
2019-03-24T07:55:26.871Z,33.17
2019-03-24T07:57:56.695Z,35.90
2019-03-24T08:00:39.538Z,35.90
2019-03-24T08:03:10.442Z,34.90
2019-03-24T08:05:46.019Z,36.37
2019-03-24T08:08:15.900Z,35.10
2019-03-24T08:10:45.481Z,34.40
2019-03-24T08:13:17.697Z,35.90
2019-03-24T08:15:47.410Z,37.47
2019-03-24T08:18:17.191Z,36.50
2019-03-24T08:20:49.576Z,38.60
2019-03-24T08:23:20.314Z,35.57
2019-03-24T08:25:53.592Z,39.77
2019-03-24T08:28:23.332Z,39.00
2019-03-24T08:30:56.101Z,37.90
2019-03-24T08:33:25.799Z,34.00
2019-03-24T08:35:58.174Z,38.43
2019-03-24T08:38:28.693Z,36.27
2019-03-24T08:41:04.009Z,36.73
2019-03-24T08:43:36.973Z,34.40
2019-03-24T08:46:07.600Z,35.27
2019-03-24T08:48:41.072Z,35.50
2019-03-24T08:51:13.388Z,36.73
2019-03-24T08:53:44.562Z,37.77
2019-03-24T08:56:23.246Z,38.70
2019-03-24T08:58:52.925Z,39.70
2019-03-24T09:01:22.561Z,37.27
2019-03-24T09:03:58.377Z,43.00
2019-03-24T09:06:32.036Z,38.30
2019-03-24T09:09:06.589Z,39.50
2019-03-24T09:11:36.196Z,34.53
2019-03-24T09:14:07.213Z,37.63
2019-03-24T09:16:39.103Z,36.77
2019-03-24T09:19:09.057Z,36.20
2019-03-24T09:21:43.444Z,36.90
2019-03-24T09:24:17.853Z,35.40
2019-03-24T09:26:48.688Z,36.20
2019-03-24T09:29:18.529Z,35.57
2019-03-24T09:32:01.195Z,41.70
2019-03-24T09:34:30.783Z,33.80
2019-03-24T09:37:00.490Z,39.43
2019-03-24T09:39:30.177Z,38.63
2019-03-24T09:42:02.809Z,35.00
2019-03-24T09:44:32.482Z,37.10
2019-03-24T09:47:02.121Z,36.53
2019-03-24T09:49:31.717Z,38.53
2019-03-24T09:52:01.335Z,38.60
2019-03-24T09:54:31.031Z,36.13
2019-03-24T09:57:02.800Z,32.77
2019-03-24T09:59:32.377Z,36.40
2019-03-24T10:02:04.763Z,36.77
2019-03-24T10:04:35.976Z,36.97
2019-03-24T10:07:05.614Z,40.30
2019-03-24T10:09:35.222Z,37.83
2019-03-24T10:12:07.321Z,37.50
2019-03-24T10:14:41.888Z,36.27
2019-03-24T10:17:14.597Z,36.83
2019-03-24T10:19:47.370Z,36.90
2019-03-24T10:22:16.996Z,38.97
2019-03-24T10:24:48.567Z,35.70
2019-03-24T10:27:18.151Z,34.37
2019-03-24T10:29:50.565Z,36.57
2019-03-24T10:32:21.766Z,39.10
2019-03-24T10:34:51.356Z,35.20
2019-03-24T10:37:20.931Z,36.10
2019-03-24T10:39:51.006Z,39.87
2019-03-24T10:42:21.893Z,38.00
2019-03-24T10:44:51.559Z,39.00
2019-03-24T10:47:22.963Z,36.80
2019-03-24T10:49:52.622Z,35.97
2019-03-24T10:52:22.250Z,34.80
2019-03-24T10:54:52.243Z,34.23
2019-03-24T10:57:21.873Z,36.30
2019-03-24T10:59:51.453Z,38.07
2019-03-24T11:02:25.637Z,38.60
2019-03-24T11:04:56.816Z,37.23
2019-03-24T11:07:30.953Z,34.40
2019-03-24T11:10:06.768Z,36.57
2019-03-24T11:12:41.843Z,37.17
2019-03-24T11:15:18.035Z,32.80
2019-03-24T11:17:50.112Z,35.00
2019-03-24T11:20:24.003Z,36.10
2019-03-24T11:22:54.817Z,34.93
2019-03-24T11:25:28.581Z,34.20
2019-03-24T11:28:00.126Z,33.07
2019-03-24T11:30:29.752Z,33.50
2019-03-24T11:32:59.526Z,40.40
2019-03-24T11:35:31.912Z,32.60
2019-03-24T11:38:02.994Z,37.63
2019-03-24T11:40:34.390Z,34.43
2019-03-24T11:43:03.996Z,33.00
2019-03-24T11:45:33.664Z,33.73
2019-03-24T11:48:03.494Z,39.17
2019-03-24T11:50:36.626Z,37.83
2019-03-24T11:53:06.241Z,36.57
2019-03-24T11:55:35.922Z,39.93
2019-03-24T11:58:06.975Z,35.57
2019-03-24T12:00:42.787Z,34.57
2019-03-24T12:03:13.815Z,34.80
2019-03-24T12:05:46.015Z,36.53
2019-03-24T12:08:16.137Z,34.30
2019-03-24T12:10:47.855Z,36.53
2019-03-24T12:13:17.428Z,35.27
2019-03-24T12:15:51.434Z,31.73
2019-03-24T12:18:21.116Z,30.87
2019-03-24T12:20:51.038Z,33.10
2019-03-24T12:23:28.036Z,29.40
2019-03-24T12:25:57.591Z,31.03
2019-03-24T12:28:28.012Z,33.13
2019-03-24T12:30:58.499Z,31.57
2019-03-24T12:33:30.890Z,30.77
2019-03-24T12:36:00.599Z,31.57
2019-03-24T12:38:32.988Z,35.70
2019-03-24T12:41:04.053Z,29.07
2019-03-24T12:43:38.954Z,35.37
2019-03-24T12:46:08.603Z,33.20
2019-03-24T12:48:38.599Z,32.37
2019-03-24T12:51:08.245Z,31.33
2019-03-24T12:53:37.879Z,30.53
2019-03-24T12:56:09.351Z,31.00
2019-03-24T12:58:38.966Z,33.33
2019-03-24T13:01:08.585Z,32.43
2019-03-24T13:03:38.711Z,31.70
2019-03-24T13:06:13.098Z,31.40
2019-03-24T13:08:43.192Z,31.30
2019-03-24T13:11:24.725Z,30.30
2019-03-24T13:13:54.352Z,28.33
2019-03-24T13:16:23.989Z,33.10
2019-03-24T13:18:59.245Z,27.00
2019-03-24T13:21:32.053Z,27.97
2019-03-24T13:24:02.870Z,28.30
2019-03-24T13:26:33.925Z,28.37
2019-03-24T13:29:06.654Z,28.87
2019-03-24T13:31:37.145Z,27.47
2019-03-24T13:34:07.964Z,29.43
2019-03-24T13:36:39.403Z,29.50
2019-03-24T13:39:09.381Z,27.93
2019-03-24T13:41:42.434Z,28.40
2019-03-24T13:44:12.043Z,30.60
2019-03-24T13:46:41.711Z,29.43
2019-03-24T13:49:11.590Z,28.87
2019-03-24T13:51:44.011Z,27.47
2019-03-24T13:54:15.419Z,31.47
2019-03-24T13:56:55.953Z,30.27
2019-03-24T13:59:26.721Z,33.10
2019-03-24T14:01:59.064Z,29.27
2019-03-24T14:04:30.277Z,29.80
2019-03-24T14:06:59.901Z,28.33
2019-03-24T14:09:30.997Z,32.60
2019-03-24T14:12:03.554Z,27.23
2019-03-24T14:14:36.402Z,31.00
2019-03-24T14:17:07.301Z,31.20
2019-03-24T14:19:36.920Z,30.47
2019-03-24T14:22:10.465Z,29.60
2019-03-24T14:24:40.260Z,30.37
2019-03-24T14:27:10.010Z,28.20
2019-03-24T14:29:39.826Z,30.07
2019-03-24T14:32:09.553Z,31.83
2019-03-24T14:34:42.165Z,30.40
2019-03-24T14:37:11.943Z,32.83
2019-03-24T14:39:41.499Z,30.27
2019-03-24T14:42:11.469Z,29.43
2019-03-24T14:44:45.671Z,30.43
2019-03-24T14:47:15.405Z,32.47
2019-03-24T14:49:44.986Z,32.20
2019-03-24T14:52:15.803Z,29.83
2019-03-24T14:54:45.746Z,32.73
2019-03-24T14:57:15.794Z,30.03
2019-03-24T14:59:45.518Z,33.87
2019-03-24T15:02:18.572Z,31.73
2019-03-24T15:04:50.622Z,30.57
2019-03-24T15:07:22.021Z,30.93
2019-03-24T15:10:02.811Z,27.97
2019-03-24T15:12:36.702Z,28.20
2019-03-24T15:15:07.435Z,29.03
2019-03-24T15:17:38.406Z,29.97
2019-03-24T15:20:09.943Z,29.70
2019-03-24T15:22:39.558Z,29.23
2019-03-24T15:25:09.186Z,26.87
2019-03-24T15:27:42.052Z,27.00
2019-03-24T15:30:14.259Z,27.77
2019-03-24T15:32:43.900Z,28.53
2019-03-24T15:35:14.636Z,27.83
2019-03-24T15:37:47.961Z,27.93
2019-03-24T15:40:23.175Z,27.53
2019-03-24T15:42:53.902Z,27.83
2019-03-24T15:45:26.628Z,28.47
2019-03-24T15:47:58.146Z,28.80
2019-03-24T15:50:27.994Z,27.33
2019-03-24T15:53:00.781Z,28.97
2019-03-24T15:55:33.364Z,30.00
2019-03-24T15:58:03.388Z,27.27
2019-03-24T16:00:49.592Z,26.57
2019-03-24T16:03:19.498Z,27.73
2019-03-24T16:05:49.105Z,27.00
2019-03-24T16:08:20.550Z,25.30
2019-03-24T16:10:53.190Z,25.90
2019-03-24T16:13:22.849Z,28.43
2019-03-24T16:15:56.856Z,26.77
2019-03-24T16:18:28.480Z,27.60
2019-03-24T16:21:03.087Z,27.50
2019-03-24T16:23:34.005Z,30.00
2019-03-24T16:26:03.676Z,28.23
2019-03-24T16:28:35.696Z,28.73
2019-03-24T16:31:10.065Z,28.50
2019-03-24T16:33:50.793Z,27.00
2019-03-24T16:36:20.870Z,29.77
2019-03-24T16:38:50.461Z,29.07
2019-03-24T16:41:20.249Z,26.63
2019-03-24T16:43:49.841Z,27.60
2019-03-24T16:46:23.417Z,28.70
2019-03-24T16:48:53.596Z,28.70
2019-03-24T16:51:23.252Z,26.97
2019-03-24T16:53:52.844Z,27.80
2019-03-24T16:56:28.285Z,26.57
2019-03-24T16:58:58.971Z,26.23
2019-03-24T17:01:28.605Z,27.27
2019-03-24T17:04:01.072Z,28.10
2019-03-24T17:06:31.942Z,29.40
2019-03-24T17:09:04.622Z,28.53
2019-03-24T17:11:34.276Z,28.97
2019-03-24T17:14:03.975Z,27.50
2019-03-24T17:16:33.642Z,27.93
2019-03-24T17:19:04.893Z,26.70
2019-03-24T17:21:34.488Z,28.73
2019-03-24T17:24:04.106Z,27.07
2019-03-24T17:26:35.904Z,28.00
2019-03-24T17:29:07.110Z,27.37
2019-03-24T17:31:37.635Z,26.57
2019-03-24T17:34:07.350Z,27.10
2019-03-24T17:36:38.752Z,25.97
2019-03-24T17:39:08.877Z,27.83
2019-03-24T17:41:38.516Z,27.10
2019-03-24T17:44:08.327Z,29.80
2019-03-24T17:46:38.172Z,26.93
2019-03-24T17:49:08.052Z,26.83
2019-03-24T17:51:37.661Z,26.37
2019-03-24T17:54:08.191Z,26.13
2019-03-24T17:56:37.846Z,26.87
2019-03-24T17:59:14.452Z,30.53
2019-03-24T18:01:44.433Z,27.43
2019-03-24T18:04:14.043Z,26.90
2019-03-24T18:06:43.654Z,27.47
2019-03-24T18:09:13.253Z,29.07
2019-03-24T18:11:43.182Z,27.77
2019-03-24T18:14:14.927Z,27.50
2019-03-24T18:16:44.386Z,29.13
2019-03-24T18:19:14.008Z,27.50
2019-03-24T18:21:44.770Z,28.47
2019-03-24T18:24:14.407Z,27.03
2019-03-24T18:26:44.056Z,28.03
2019-03-24T18:29:18.289Z,25.70
2019-03-24T18:31:47.973Z,27.60
2019-03-24T18:34:20.528Z,25.77
2019-03-24T18:36:50.138Z,26.10
2019-03-24T18:39:21.803Z,25.93
2019-03-24T18:41:51.443Z,26.37
2019-03-24T18:44:21.092Z,25.60
2019-03-24T18:46:55.555Z,25.67
2019-03-24T18:49:25.397Z,25.10
2019-03-24T18:51:56.746Z,28.50
2019-03-24T18:54:26.383Z,28.43
2019-03-24T18:56:59.418Z,26.60
2019-03-24T18:59:32.020Z,28.20
2019-03-24T19:02:01.754Z,27.40
2019-03-24T19:04:31.642Z,25.57
2019-03-24T19:07:01.444Z,26.27
2019-03-24T19:09:31.138Z,26.63
2019-03-24T19:12:00.755Z,26.47
2019-03-24T19:14:32.965Z,27.57
2019-03-24T19:17:06.732Z,22.23
2019-03-24T19:19:36.467Z,26.23
2019-03-24T19:22:12.234Z,26.27
2019-03-24T19:24:46.962Z,23.90
2019-03-24T19:27:16.673Z,23.80
2019-03-24T19:29:46.441Z,24.40
2019-03-24T19:32:20.957Z,22.63
2019-03-24T19:34:50.599Z,23.33
2019-03-24T19:37:20.297Z,25.37
2019-03-24T19:39:49.893Z,25.20
2019-03-24T19:42:20.610Z,26.57
2019-03-24T19:44:51.540Z,22.70
2019-03-24T19:47:29.684Z,24.47
2019-03-24T19:50:00.809Z,24.30
2019-03-24T19:52:43.950Z,22.80
2019-03-24T19:55:07.002Z,22.00
2019-03-24T19:57:38.781Z,25.80
2019-03-24T20:00:09.327Z,22.97
2019-03-24T20:02:41.774Z,23.13
2019-03-24T20:05:14.571Z,22.80
2019-03-24T20:07:48.050Z,23.27
2019-03-24T20:10:18.222Z,24.50
2019-03-24T20:12:50.879Z,26.93
2019-03-24T20:15:21.705Z,24.10
2019-03-24T20:17:52.505Z,23.17
2019-03-24T20:20:23.362Z,22.03
2019-03-24T20:22:56.890Z,22.10
2019-03-24T20:25:25.500Z,23.30
2019-03-24T20:27:55.118Z,22.07
2019-03-24T20:30:25.128Z,21.53
2019-03-24T20:32:59.122Z,22.23
2019-03-24T20:35:29.850Z,21.00
2019-03-24T20:38:00.970Z,24.00
2019-03-24T20:40:35.834Z,22.77
2019-03-24T20:43:11.019Z,23.20
2019-03-24T20:45:43.475Z,22.50
2019-03-24T20:48:14.953Z,22.17
2019-03-24T20:50:44.609Z,23.30
2019-03-24T20:53:18.354Z,22.67
2019-03-24T20:55:45.695Z,22.10
2019-03-24T20:58:17.823Z,23.20
2019-03-24T21:00:47.600Z,23.17
2019-03-24T21:03:18.749Z,21.97
2019-03-24T21:05:52.462Z,21.63
2019-03-24T21:08:23.164Z,24.53
2019-03-24T21:10:54.069Z,21.17
2019-03-24T21:13:24.806Z,22.57
2019-03-24T21:15:58.507Z,21.60
2019-03-24T21:18:28.155Z,22.57
2019-03-24T21:20:58.435Z,21.23
2019-03-24T21:23:29.709Z,22.00
2019-03-24T21:26:04.484Z,21.27
2019-03-24T21:28:37.154Z,21.03
2019-03-24T21:31:06.924Z,20.53
2019-03-24T21:33:38.390Z,20.33
2019-03-24T21:36:09.200Z,17.87
2019-03-24T21:38:38.836Z,17.87
2019-03-24T21:41:11.412Z,23.63
2019-03-24T21:43:45.993Z,20.40
2019-03-24T21:46:15.595Z,17.60
2019-03-24T21:48:47.713Z,15.53
2019-03-24T21:51:23.132Z,15.07
2019-03-24T21:53:52.777Z,15.80
2019-03-24T21:56:24.375Z,14.00
2019-03-24T21:58:59.490Z,14.00
2019-03-24T22:01:31.056Z,13.53
2019-03-24T22:04:02.411Z,12.50
2019-03-24T22:06:32.150Z,12.23
2019-03-24T22:09:05.466Z,11.60
2019-03-24T22:11:36.141Z,13.37
2019-03-24T22:14:05.775Z,12.67
2019-03-24T22:16:39.901Z,13.80
2019-03-24T22:19:10.560Z,14.40
2019-03-24T22:21:42.406Z,14.20
2019-03-24T22:24:14.554Z,14.23
2019-03-24T22:26:44.163Z,12.67
2019-03-24T22:29:13.890Z,15.13
2019-03-24T22:31:43.597Z,16.43
2019-03-24T22:34:13.331Z,14.37
2019-03-24T22:36:51.792Z,19.17
2019-03-24T22:39:21.657Z,18.43
2019-03-24T22:42:00.401Z,19.53
2019-03-24T22:44:30.037Z,19.40
2019-03-24T22:47:01.182Z,19.50
2019-03-24T22:49:32.129Z,20.10
2019-03-24T22:52:07.400Z,19.17
2019-03-24T22:54:34.817Z,18.93
2019-03-24T22:57:05.923Z,20.10
2019-03-24T22:59:39.384Z,18.93
2019-03-24T23:02:08.962Z,18.27
2019-03-24T23:04:38.622Z,21.90
2019-03-24T23:07:12.241Z,21.67
2019-03-24T23:09:44.407Z,20.83
2019-03-24T23:12:19.745Z,21.63
2019-03-24T23:14:51.207Z,21.17
2019-03-24T23:17:20.827Z,20.13
2019-03-24T23:19:52.015Z,21.87
2019-03-24T23:22:24.018Z,23.23
2019-03-24T23:24:57.817Z,20.67
2019-03-24T23:27:30.463Z,21.73
2019-03-24T23:30:00.327Z,18.50
2019-03-24T23:32:32.253Z,18.53
2019-03-24T23:35:01.840Z,16.53
2019-03-24T23:37:31.435Z,16.00
2019-03-24T23:40:01.333Z,18.10
2019-03-24T23:42:31.773Z,17.73
2019-03-24T23:45:01.574Z,17.63
2019-03-24T23:47:31.128Z,15.60
2019-03-24T23:50:05.282Z,15.40
2019-03-24T23:52:36.912Z,16.67
2019-03-24T23:55:06.827Z,15.97
2019-03-24T23:57:47.763Z,14.10
